createdAt,value
2019-03-05T00:00:40.900Z,11.45
2019-03-05T00:03:09.797Z,8.18
2019-03-05T00:05:38.558Z,9.18
2019-03-05T00:08:07.599Z,4.30
2019-03-05T00:10:36.377Z,6.20
2019-03-05T00:13:05.098Z,4.97
2019-03-05T00:15:33.899Z,7.37
2019-03-05T00:18:02.639Z,7.17
2019-03-05T00:20:31.438Z,6.78
2019-03-05T00:23:00.199Z,5.65
2019-03-05T00:25:32.005Z,6.12
2019-03-05T00:28:28.217Z,6.03
2019-03-05T00:31:02.829Z,7.33
2019-03-05T00:33:40.079Z,9.53
2019-03-05T00:36:11.742Z,6.42
2019-03-05T00:38:46.319Z,8.63
2019-03-05T00:41:35.300Z,9.93
2019-03-05T00:44:40.339Z,8.95
2019-03-05T00:47:20.919Z,7.62
2019-03-05T00:50:17.038Z,9.43
2019-03-05T00:52:48.717Z,6.95
2019-03-05T00:55:49.982Z,9.18
2019-03-05T00:58:27.622Z,11.83
2019-03-05T01:01:21.837Z,8.28
2019-03-05T01:03:56.099Z,12.10
2019-03-05T01:06:27.503Z,6.42
2019-03-05T01:08:57.725Z,7.62
2019-03-05T01:11:27.000Z,8.45
2019-03-05T01:13:55.799Z,6.97
2019-03-05T01:16:29.518Z,6.50
2019-03-05T01:18:58.418Z,8.15
2019-03-05T01:21:27.153Z,10.30
2019-03-05T01:23:55.920Z,8.33
2019-03-05T01:26:25.067Z,7.05
2019-03-05T01:28:53.821Z,6.75
2019-03-05T01:31:24.622Z,7.28
2019-03-05T01:33:54.977Z,10.35
2019-03-05T01:36:25.279Z,7.72
2019-03-05T01:39:04.422Z,7.25
2019-03-05T01:41:33.477Z,8.83
2019-03-05T01:44:02.277Z,5.37
2019-03-05T01:46:31.017Z,5.95
2019-03-05T01:48:59.757Z,7.50
2019-03-05T01:51:28.537Z,7.50
2019-03-05T01:53:57.300Z,6.30
2019-03-05T01:56:26.102Z,7.22
2019-03-05T01:58:54.822Z,6.70
2019-03-05T02:01:23.558Z,6.08
2019-03-05T02:03:52.358Z,7.65
2019-03-05T02:06:21.497Z,9.58
2019-03-05T02:08:50.278Z,8.68
2019-03-05T02:11:19.019Z,11.68
2019-03-05T02:13:47.757Z,8.23
2019-03-05T02:16:16.538Z,8.73
2019-03-05T02:18:45.379Z,7.72
2019-03-05T02:21:14.120Z,9.25
2019-03-05T02:24:05.020Z,10.48
2019-03-05T02:26:42.761Z,10.98
2019-03-05T02:29:22.959Z,12.25
2019-03-05T02:32:03.538Z,11.30
2019-03-05T02:34:47.505Z,10.53
2019-03-05T02:37:22.065Z,11.97
2019-03-05T02:40:14.599Z,12.03
2019-03-05T02:42:55.119Z,13.95
2019-03-05T02:45:41.988Z,9.55
2019-03-05T02:48:31.780Z,12.07
2019-03-05T02:51:24.680Z,12.90
2019-03-05T02:54:14.178Z,10.08
2019-03-05T02:57:08.482Z,13.88
2019-03-05T03:02:15.120Z,12.58
2019-03-05T03:04:45.497Z,12.40
2019-03-05T03:07:14.262Z,16.20
2019-03-05T03:09:51.677Z,12.58
2019-03-05T03:12:20.759Z,15.48
2019-03-05T03:14:49.521Z,13.13
2019-03-05T03:17:18.303Z,10.78
2019-03-05T03:19:47.058Z,12.93
2019-03-05T03:22:15.814Z,15.25
2019-03-05T03:24:44.590Z,11.33
2019-03-05T03:27:13.678Z,10.85
2019-03-05T03:29:42.455Z,9.75
2019-03-05T03:32:11.240Z,10.00
2019-03-05T03:34:40.022Z,13.62
2019-03-05T03:37:08.818Z,13.00
2019-03-05T03:39:38.041Z,11.33
2019-03-05T03:42:06.800Z,15.13
2019-03-05T03:44:35.543Z,10.80
2019-03-05T03:47:04.319Z,12.20
2019-03-05T03:49:33.079Z,11.65
2019-03-05T03:52:01.859Z,10.75
2019-03-05T03:54:30.633Z,13.10
2019-03-05T03:56:59.418Z,10.55
2019-03-05T03:59:28.146Z,10.82
2019-03-05T04:01:56.903Z,8.75
2019-03-05T04:04:25.698Z,10.43
2019-03-05T04:06:54.458Z,8.88
2019-03-05T04:09:23.324Z,8.68
2019-03-05T04:11:52.098Z,10.38
2019-03-05T04:14:20.881Z,9.90
2019-03-05T04:16:49.619Z,10.10
2019-03-05T04:19:19.958Z,9.05
2019-03-05T04:21:48.759Z,9.08
2019-03-05T04:24:17.497Z,8.70
2019-03-05T04:26:46.278Z,10.45
2019-03-05T04:29:15.026Z,8.65
2019-03-05T04:31:43.817Z,8.20
2019-03-05T04:34:12.578Z,6.75
2019-03-05T04:36:41.317Z,9.18
2019-03-05T04:39:12.257Z,6.92
2019-03-05T04:41:41.025Z,6.40
2019-03-05T04:44:09.839Z,10.18
2019-03-05T04:46:38.579Z,7.45
2019-03-05T04:49:08.877Z,8.13
2019-03-05T04:51:41.938Z,7.17
2019-03-05T04:54:10.662Z,6.87
2019-03-05T04:56:39.479Z,7.50
2019-03-05T04:59:08.258Z,8.25
2019-03-05T05:01:36.998Z,9.48
2019-03-05T05:04:05.797Z,6.33
2019-03-05T05:06:34.539Z,6.60
2019-03-05T05:09:04.317Z,6.85
2019-03-05T05:11:33.078Z,5.20
2019-03-05T05:14:01.839Z,6.25
2019-03-05T05:16:30.619Z,7.95
2019-03-05T05:18:59.379Z,5.25
2019-03-05T05:21:28.161Z,6.12
2019-03-05T05:23:56.902Z,6.55
2019-03-05T05:26:26.078Z,5.28
2019-03-05T05:28:54.852Z,5.87
2019-03-05T05:31:23.861Z,9.90
2019-03-05T05:33:52.638Z,5.17
2019-03-05T05:36:21.360Z,7.17
2019-03-05T05:38:50.159Z,5.17
2019-03-05T05:41:18.918Z,4.83
2019-03-05T05:43:47.665Z,7.47
2019-03-05T05:46:16.466Z,5.92
2019-03-05T05:48:45.199Z,5.80
2019-03-05T05:51:13.933Z,6.72
2019-03-05T05:53:42.696Z,7.47
2019-03-05T05:56:11.409Z,6.85
2019-03-05T05:58:40.336Z,9.05
2019-03-05T06:01:10.653Z,7.15
2019-03-05T06:03:39.403Z,6.08
2019-03-05T06:06:08.171Z,4.75
2019-03-05T06:08:36.915Z,7.80
2019-03-05T06:11:05.701Z,7.47
2019-03-05T06:13:35.853Z,5.17
2019-03-05T06:16:04.744Z,7.17
2019-03-05T06:18:33.507Z,6.47
2019-03-05T06:21:02.237Z,5.17
2019-03-05T06:23:32.753Z,6.00
2019-03-05T06:26:01.479Z,4.87
2019-03-05T06:28:30.356Z,5.12
2019-03-05T06:30:59.100Z,5.22
2019-03-05T06:33:27.839Z,7.95
2019-03-05T06:35:56.590Z,5.95
2019-03-05T06:38:25.471Z,6.40
2019-03-05T06:40:54.206Z,5.45
2019-03-05T06:43:23.195Z,3.45
2019-03-05T06:45:51.959Z,6.50
2019-03-05T06:48:20.692Z,7.30
2019-03-05T06:50:49.463Z,4.15
2019-03-05T06:53:18.182Z,6.72
2019-03-05T06:55:47.224Z,6.33
2019-03-05T06:58:16.336Z,7.55
2019-03-05T07:00:45.073Z,4.97
2019-03-05T07:03:13.834Z,7.65
2019-03-05T07:06:18.920Z,7.12
2019-03-05T07:08:50.619Z,6.60
2019-03-05T07:11:30.854Z,9.18
2019-03-05T07:14:11.573Z,8.10
2019-03-05T07:16:52.106Z,16.23
2019-03-05T07:19:22.679Z,7.45
2019-03-05T07:22:00.063Z,10.00
2019-03-05T07:24:46.638Z,6.50
2019-03-05T07:27:18.158Z,5.40
2019-03-05T07:29:46.935Z,5.65
2019-03-05T07:32:15.654Z,5.42
2019-03-05T07:34:45.947Z,7.55
2019-03-05T07:37:14.829Z,6.42
2019-03-05T07:39:43.696Z,5.80
2019-03-05T07:42:12.545Z,5.97
2019-03-05T07:44:41.300Z,5.15
2019-03-05T07:47:10.034Z,4.55
2019-03-05T07:49:43.778Z,5.62
2019-03-05T07:52:09.309Z,7.47
2019-03-05T07:54:38.388Z,6.17
2019-03-05T07:57:07.161Z,5.58
2019-03-05T07:59:35.969Z,4.62
2019-03-05T08:02:05.233Z,7.28
2019-03-05T08:04:33.961Z,9.50
2019-03-05T08:07:02.743Z,4.62
2019-03-05T08:09:38.957Z,3.92
2019-03-05T08:12:23.038Z,14.00
2019-03-05T08:15:00.765Z,5.08
2019-03-05T08:17:29.928Z,9.90
2019-03-05T08:19:58.681Z,3.83
2019-03-05T08:22:28.437Z,2.83
2019-03-05T08:24:57.238Z,4.05
2019-03-05T08:27:26.008Z,16.65
2019-03-05T08:29:54.834Z,9.08
2019-03-05T08:32:24.593Z,6.33
2019-03-05T08:34:53.339Z,4.33
2019-03-05T08:37:22.124Z,6.83
2019-03-05T08:39:50.880Z,6.22
2019-03-05T08:42:19.689Z,4.05
2019-03-05T08:44:50.629Z,3.40
2019-03-05T08:47:19.723Z,2.52
2019-03-05T08:49:48.528Z,3.95
2019-03-05T08:52:17.288Z,6.40
2019-03-05T08:54:46.465Z,3.87
2019-03-05T08:57:15.208Z,3.12
2019-03-05T08:59:43.963Z,3.70
2019-03-05T09:02:12.756Z,5.30
2019-03-05T09:04:41.559Z,9.55
2019-03-05T09:07:10.363Z,5.00
2019-03-05T09:09:40.484Z,7.33
2019-03-05T09:12:09.242Z,3.47
2019-03-05T09:14:38.408Z,3.50
2019-03-05T09:17:07.354Z,4.17
2019-03-05T09:19:36.164Z,2.37
2019-03-05T09:22:04.941Z,4.40
2019-03-05T09:24:33.685Z,5.37
2019-03-05T09:27:02.462Z,4.22
2019-03-05T09:29:31.200Z,4.47
2019-03-05T09:31:59.977Z,3.77
2019-03-05T09:34:28.724Z,2.77
2019-03-05T09:36:57.520Z,5.25
2019-03-05T09:39:26.350Z,6.92
2019-03-05T09:41:55.840Z,3.22
2019-03-05T09:44:24.594Z,4.50
2019-03-05T09:46:53.343Z,5.40
2019-03-05T09:49:22.142Z,2.17
2019-03-05T09:51:50.990Z,2.77
2019-03-05T09:54:19.790Z,2.17
2019-03-05T09:56:48.559Z,3.37
2019-03-05T09:59:17.303Z,3.35
2019-03-05T10:01:47.649Z,3.08
2019-03-05T10:04:16.687Z,4.50
2019-03-05T10:06:45.404Z,2.08
2019-03-05T10:09:14.859Z,3.05
2019-03-05T10:11:43.608Z,4.60
2019-03-05T10:14:12.402Z,7.60
2019-03-05T10:16:41.232Z,5.67
2019-03-05T10:19:10.033Z,4.08
2019-03-05T10:21:46.334Z,4.42
2019-03-05T10:24:11.115Z,4.35
2019-03-05T10:26:40.282Z,4.08
2019-03-05T10:29:09.075Z,5.58
2019-03-05T10:31:37.901Z,5.28
2019-03-05T10:34:06.669Z,4.08
2019-03-05T10:36:37.141Z,3.22
2019-03-05T10:39:08.852Z,7.50
2019-03-05T10:41:37.598Z,5.75
2019-03-05T10:44:06.349Z,4.05
2019-03-05T10:46:35.139Z,2.62
2019-03-05T10:49:03.901Z,3.90
2019-03-05T10:51:32.802Z,4.33
2019-03-05T10:54:02.290Z,2.25
2019-03-05T10:56:31.585Z,5.28
2019-03-05T10:59:00.465Z,2.52
2019-03-05T11:01:29.278Z,3.12
2019-03-05T11:03:58.935Z,3.95
2019-03-05T11:06:27.675Z,5.33
2019-03-05T11:08:56.490Z,3.35
2019-03-05T11:11:27.634Z,3.87
2019-03-05T11:13:56.432Z,2.95
2019-03-05T11:16:31.141Z,4.80
2019-03-05T11:18:59.279Z,2.67
2019-03-05T11:21:28.067Z,3.80
2019-03-05T11:23:56.839Z,5.47
2019-03-05T11:26:25.643Z,2.90
2019-03-05T11:28:54.801Z,1.77
2019-03-05T11:31:23.950Z,1.87
2019-03-05T11:33:52.698Z,4.62
2019-03-05T11:36:21.434Z,3.65
2019-03-05T11:38:50.224Z,3.22
2019-03-05T11:41:18.959Z,7.45
2019-03-05T11:43:47.778Z,13.88
2019-03-05T11:46:17.599Z,7.25
2019-03-05T11:48:46.339Z,3.02
2019-03-05T11:51:15.991Z,6.30
2019-03-05T11:53:44.733Z,4.65
2019-03-05T11:56:14.994Z,3.87
2019-03-05T11:58:43.743Z,4.10
2019-03-05T12:01:14.248Z,5.22
2019-03-05T12:03:43.114Z,3.42
2019-03-05T12:06:11.848Z,4.47
2019-03-05T12:08:40.985Z,4.62
2019-03-05T12:11:09.828Z,2.90
2019-03-05T12:13:39.166Z,2.08
2019-03-05T12:16:08.729Z,1.42
2019-03-05T12:18:37.460Z,0.70
2019-03-05T12:21:06.574Z,1.55
2019-03-05T12:23:35.322Z,2.58
2019-03-05T12:26:04.249Z,1.55
2019-03-05T12:28:34.490Z,0.80
2019-03-05T12:31:03.235Z,2.55
2019-03-05T12:33:32.014Z,1.75
2019-03-05T12:36:00.788Z,2.62
2019-03-05T12:38:29.806Z,1.98
2019-03-05T12:40:58.578Z,5.17
2019-03-05T12:43:27.687Z,1.15
2019-03-05T12:45:56.577Z,3.47
2019-03-05T12:48:25.560Z,2.05
2019-03-05T12:50:54.306Z,1.90
2019-03-05T12:53:24.766Z,3.62
2019-03-05T12:55:53.553Z,5.40
2019-03-05T12:58:22.803Z,3.92
2019-03-05T13:00:51.855Z,6.00
2019-03-05T13:03:20.942Z,5.15
2019-03-05T13:05:49.694Z,6.62
2019-03-05T13:08:18.429Z,4.72
2019-03-05T13:10:47.209Z,4.30
2019-03-05T13:13:15.960Z,3.37
2019-03-05T13:15:46.504Z,4.45
2019-03-05T13:18:15.269Z,3.75
2019-03-05T13:20:44.011Z,5.80
2019-03-05T13:23:12.805Z,3.72
2019-03-05T13:25:41.535Z,5.65
2019-03-05T13:28:10.258Z,4.62
2019-03-05T13:30:40.481Z,6.92
2019-03-05T13:33:09.542Z,3.98
2019-03-05T13:35:38.305Z,6.28
2019-03-05T13:38:09.708Z,4.65
2019-03-05T13:40:40.782Z,9.25
2019-03-05T13:43:10.143Z,6.50
2019-03-05T13:45:42.799Z,4.33
2019-03-05T13:48:23.670Z,3.35
2019-03-05T13:50:55.253Z,5.53
2019-03-05T13:53:33.063Z,5.33
2019-03-05T13:56:07.605Z,6.10
2019-03-05T13:58:54.621Z,4.17
2019-03-05T14:01:23.500Z,7.65
2019-03-05T14:04:00.899Z,4.72
2019-03-05T14:06:41.545Z,4.65
2019-03-05T14:09:15.911Z,4.72
2019-03-05T14:11:46.828Z,5.00
2019-03-05T14:14:21.348Z,6.65
2019-03-05T14:16:58.004Z,6.08
2019-03-05T14:19:26.739Z,5.55
2019-03-05T14:21:55.509Z,2.42
2019-03-05T14:24:24.281Z,3.92
2019-03-05T14:26:53.092Z,5.85
2019-03-05T14:29:21.900Z,5.83
2019-03-05T14:31:50.629Z,6.80
2019-03-05T14:34:19.461Z,6.87
2019-03-05T14:36:48.265Z,4.92
2019-03-05T14:39:24.479Z,5.10
2019-03-05T14:41:53.675Z,4.00
2019-03-05T14:44:24.766Z,6.20
2019-03-05T14:46:55.979Z,5.25
2019-03-05T14:49:25.368Z,4.70
2019-03-05T14:51:54.246Z,8.58
2019-03-05T14:54:23.067Z,5.22
2019-03-05T14:56:51.868Z,12.37
2019-03-05T14:59:21.088Z,3.98
2019-03-05T15:01:50.030Z,48.45
2019-03-05T15:04:18.811Z,32.33
2019-03-05T15:06:52.617Z,16.87
2019-03-05T15:09:22.020Z,8.20
2019-03-05T15:11:50.780Z,5.33
2019-03-05T15:14:19.557Z,5.35
2019-03-05T15:16:48.339Z,19.07
2019-03-05T15:19:21.418Z,4.58
2019-03-05T15:21:48.017Z,4.97
2019-03-05T15:24:16.923Z,4.25
2019-03-05T15:26:45.662Z,16.40
2019-03-05T15:29:14.600Z,9.73
2019-03-05T15:31:43.720Z,12.30
2019-03-05T15:34:12.516Z,5.70
2019-03-05T15:36:41.583Z,5.05
2019-03-05T15:39:10.422Z,13.65
2019-03-05T15:41:39.274Z,7.42
2019-03-05T15:44:08.229Z,8.23
2019-03-05T15:46:37.001Z,11.88
2019-03-05T15:49:06.620Z,20.60
2019-03-05T15:51:35.373Z,12.05
2019-03-05T15:54:04.563Z,11.70
2019-03-05T15:56:42.358Z,12.33
2019-03-05T15:59:11.198Z,13.43
2019-03-05T16:01:39.943Z,9.93
2019-03-05T16:04:08.678Z,11.60
2019-03-05T16:06:37.468Z,13.95
2019-03-05T16:09:09.085Z,11.65
2019-03-05T16:11:37.818Z,10.48
2019-03-05T16:14:06.574Z,10.85
2019-03-05T16:16:35.291Z,7.65
2019-03-05T16:19:04.064Z,6.78
2019-03-05T16:21:32.804Z,8.98
2019-03-05T16:24:02.712Z,9.25
2019-03-05T16:26:31.782Z,11.63
2019-03-05T16:29:00.519Z,8.93
2019-03-05T16:31:49.829Z,7.62
2019-03-05T16:34:19.223Z,10.90
2019-03-05T16:36:49.595Z,11.88
2019-03-05T16:39:33.352Z,8.88
2019-03-05T16:42:06.865Z,4.10
2019-03-05T16:44:46.375Z,4.78
2019-03-05T16:47:19.849Z,4.95
2019-03-05T16:50:06.690Z,3.33
2019-03-05T16:52:55.421Z,4.10
2019-03-05T16:55:40.694Z,6.33
2019-03-05T16:58:27.152Z,8.43
2019-03-05T17:01:03.520Z,10.03
2019-03-05T17:03:43.168Z,9.40
2019-03-05T17:06:28.809Z,5.60
2019-03-05T17:09:08.344Z,9.80
2019-03-05T17:11:55.211Z,7.85
2019-03-05T17:14:24.351Z,3.33
2019-03-05T17:16:53.171Z,5.87
2019-03-05T17:19:22.224Z,6.62
2019-03-05T17:21:53.023Z,7.15
2019-03-05T17:24:22.055Z,11.75
2019-03-05T17:26:50.819Z,20.60
2019-03-05T17:29:19.559Z,13.35
2019-03-05T17:31:48.362Z,10.55
2019-03-05T17:34:17.100Z,12.25
2019-03-05T17:36:46.147Z,33.00
2019-03-05T17:39:16.964Z,16.87
2019-03-05T17:41:46.031Z,19.85
2019-03-05T17:44:14.793Z,35.30
2019-03-05T17:46:43.914Z,23.07
2019-03-05T17:49:12.660Z,23.87
2019-03-05T17:51:41.788Z,21.25
2019-03-05T17:54:10.505Z,7.45
2019-03-05T17:56:39.304Z,10.82
2019-03-05T17:59:08.518Z,8.90
2019-03-05T18:01:37.323Z,10.58
2019-03-05T18:04:06.069Z,21.95
2019-03-05T18:06:35.222Z,19.42
2019-03-05T18:09:05.378Z,13.85
2019-03-05T18:11:34.435Z,12.15
2019-03-05T18:14:03.353Z,16.87
2019-03-05T18:16:32.309Z,19.98
2019-03-05T18:19:01.060Z,18.67
2019-03-05T18:21:29.865Z,17.45
2019-03-05T18:23:58.660Z,9.68
2019-03-05T18:26:27.653Z,7.80
2019-03-05T18:28:56.656Z,8.45
2019-03-05T18:31:25.400Z,16.27
2019-03-05T18:33:54.173Z,9.85
2019-03-05T18:36:22.927Z,7.78
2019-03-05T18:38:51.714Z,5.70
2019-03-05T18:41:20.549Z,7.97
2019-03-05T18:43:49.320Z,7.40
2019-03-05T18:46:18.093Z,11.50
2019-03-05T18:48:46.998Z,12.85
2019-03-05T18:51:16.453Z,13.83
2019-03-05T18:53:46.780Z,10.15
2019-03-05T18:56:15.575Z,12.55
2019-03-05T18:58:44.416Z,13.20
2019-03-05T19:01:13.629Z,18.15
2019-03-05T19:03:42.756Z,17.00
2019-03-05T19:06:11.839Z,13.70
2019-03-05T19:08:40.628Z,13.70
2019-03-05T19:11:09.463Z,16.67
2019-03-05T19:13:41.065Z,18.92
2019-03-05T19:16:10.589Z,16.10
2019-03-05T19:18:41.305Z,12.65
2019-03-05T19:21:10.398Z,11.95
2019-03-05T19:23:39.910Z,12.25
2019-03-05T19:26:09.914Z,18.30
2019-03-05T19:28:38.778Z,19.23
2019-03-05T19:31:07.910Z,13.72
2019-03-05T19:33:37.310Z,21.45
2019-03-05T19:36:08.350Z,27.85
2019-03-05T19:38:37.399Z,29.35
2019-03-05T19:41:07.972Z,26.85
2019-03-05T19:43:36.786Z,19.77
2019-03-05T19:46:06.165Z,20.97
2019-03-05T19:48:34.985Z,22.60
2019-03-05T19:51:03.924Z,19.87
2019-03-05T19:53:32.758Z,16.95
2019-03-05T19:56:01.565Z,16.50
2019-03-05T19:58:30.373Z,18.45
2019-03-05T20:01:05.077Z,13.75
2019-03-05T20:03:34.042Z,12.13
2019-03-05T20:06:03.093Z,13.80
2019-03-05T20:08:39.485Z,13.62
2019-03-05T20:11:03.036Z,14.18
2019-03-05T20:13:32.243Z,14.15
2019-03-05T20:16:01.641Z,12.93
2019-03-05T20:18:30.718Z,14.63
2019-03-05T20:20:59.930Z,14.45
2019-03-05T20:23:30.233Z,14.87
2019-03-05T20:26:00.801Z,13.08
2019-03-05T20:28:31.326Z,14.00
2019-03-05T20:31:00.511Z,13.68
2019-03-05T20:33:30.650Z,15.85
2019-03-05T20:35:59.963Z,17.82
2019-03-05T20:38:29.364Z,14.35
2019-03-05T20:40:58.204Z,16.02
2019-03-05T20:43:27.039Z,20.57
2019-03-05T20:46:07.755Z,17.75
2019-03-05T20:48:38.084Z,18.45
2019-03-05T20:51:07.047Z,22.77
2019-03-05T20:53:35.865Z,22.27
2019-03-05T20:56:04.778Z,19.48
2019-03-05T20:58:33.614Z,22.52
2019-03-05T21:01:06.548Z,19.12
2019-03-05T21:03:37.686Z,20.40
2019-03-05T21:06:06.768Z,21.75
2019-03-05T21:08:37.904Z,21.27
2019-03-05T21:11:08.444Z,20.60
2019-03-05T21:13:39.486Z,18.32
2019-03-05T21:16:08.664Z,23.83
2019-03-05T21:18:37.469Z,21.20
2019-03-05T21:21:06.533Z,19.65
2019-03-05T21:23:35.734Z,17.65
2019-03-05T21:26:04.831Z,21.65
2019-03-05T21:28:34.548Z,16.95
2019-03-05T21:31:06.915Z,21.52
2019-03-05T21:33:35.999Z,17.57
2019-03-05T21:36:05.084Z,17.55
2019-03-05T21:38:33.872Z,18.48
2019-03-05T21:41:02.610Z,16.30
2019-03-05T21:43:31.685Z,16.27
2019-03-05T21:46:06.154Z,18.37
2019-03-05T21:48:34.899Z,16.45
2019-03-05T21:51:03.662Z,17.92
2019-03-05T21:53:32.409Z,17.35
2019-03-05T21:56:01.649Z,16.48
2019-03-05T21:58:30.720Z,16.05
2019-03-05T22:00:59.505Z,15.38
2019-03-05T22:03:28.265Z,18.10
2019-03-05T22:05:57.009Z,18.42
2019-03-05T22:08:25.785Z,16.00
2019-03-05T22:10:54.574Z,15.40
2019-03-05T22:13:23.317Z,16.60
2019-03-05T22:15:52.059Z,15.75
2019-03-05T22:18:21.104Z,17.32
2019-03-05T22:20:49.849Z,21.60
2019-03-05T22:23:18.619Z,18.23
2019-03-05T22:25:47.347Z,19.75
2019-03-05T22:28:16.117Z,19.50
2019-03-05T22:30:44.859Z,20.88
2019-03-05T22:33:13.653Z,20.70
2019-03-05T22:35:42.429Z,22.45
2019-03-05T22:38:11.245Z,21.05
2019-03-05T22:40:40.014Z,18.98
2019-03-05T22:43:08.754Z,21.55
2019-03-05T22:45:37.554Z,22.30
2019-03-05T22:48:06.346Z,23.25
2019-03-05T22:50:35.079Z,23.55
2019-03-05T22:53:04.033Z,25.17
2019-03-05T22:55:32.766Z,24.02
2019-03-05T22:58:01.529Z,23.62
2019-03-05T23:00:43.177Z,25.35
2019-03-05T23:03:14.875Z,23.77
2019-03-05T23:05:44.999Z,25.08
2019-03-05T23:08:14.150Z,27.67
2019-03-05T23:10:42.918Z,27.37
2019-03-05T23:13:11.659Z,28.77
2019-03-05T23:15:40.429Z,25.00
2019-03-05T23:18:09.160Z,26.82
2019-03-05T23:20:38.087Z,27.65
2019-03-05T23:23:06.810Z,27.50
2019-03-05T23:25:35.604Z,29.15
2019-03-05T23:28:04.932Z,30.62
2019-03-05T23:30:33.684Z,33.53
2019-03-05T23:33:02.759Z,46.18
2019-03-05T23:35:31.991Z,82.82
2019-03-05T23:38:00.748Z,89.30
2019-03-05T23:40:29.886Z,45.15
2019-03-05T23:42:58.669Z,30.80
2019-03-05T23:45:27.797Z,70.92
2019-03-05T23:47:56.539Z,73.75
2019-03-05T23:50:25.298Z,74.30
2019-03-05T23:52:54.030Z,31.62
2019-03-05T23:55:22.931Z,68.60
2019-03-05T23:57:53.279Z,79.47
